Time;durP1;ratioP1;P1;durP2;ratioP2;P2;SDS_P1;SDS_P2;PMS_P1;PMS_P2;Temp;Humidity;BMP_temperature;BMP_pressure;BME280_temperature;BME280_humidity;BME280_pressure;Samples;Min_cycle;Max_cycle;Signal;HPM_P1;HPM_P2
2022/01/02 00:00:30;;;;;;;4.65;3.33;;;;;;;;;;5051311;28;20044;-58
2022/01/02 00:02:59;;;;;;;4.97;3.38;;;;;;;;;;5051333;28;20029;-55
2022/01/02 00:05:27;;;;;;;4.97;3.20;;;;;;;;;;5060655;28;20031;-52
2022/01/02 00:08:03;;;;;;;4.07;2.58;;;;;;;;;;5072334;28;20032;-52
2022/01/02 00:10:36;;;;;;;6.20;3.33;;;;;;;;;;5071494;28;20043;-54
2022/01/02 00:13:03;;;;;;;6.90;3.05;;;;;;;;;;5072412;28;20063;-53
2022/01/02 00:15:29;;;;;;;4.38;2.88;;;;;;;;;;5071545;28;20055;-53
2022/01/02 00:17:57;;;;;;;3.67;2.88;;;;;;;;;;5072199;28;20413;-51
2022/01/02 00:20:36;;;;;;;3.80;2.72;;;;;;;;;;5072105;28;20123;-55
2022/01/02 00:23:06;;;;;;;4.18;2.80;;;;;;;;;;5069496;28;20100;-54
2022/01/02 00:25:36;;;;;;;3.88;3.00;;;;;;;;;;5055446;28;20055;-54
2022/01/02 00:28:02;;;;;;;4.47;3.05;;;;;;;;;;5056155;28;20021;-53
2022/01/02 00:30:28;;;;;;;3.85;2.45;;;;;;;;;;5071425;28;20017;-57
2022/01/02 00:32:55;;;;;;;4.30;2.85;;;;;;;;;;5075169;28;20504;-53
2022/01/02 00:35:22;;;;;;;3.58;2.88;;;;;;;;;;5075833;28;20095;-55
2022/01/02 00:37:48;;;;;;;5.03;2.58;;;;;;;;;;5074403;28;20366;-56
2022/01/02 00:40:15;;;;;;;5.07;2.88;;;;;;;;;;5074889;28;20396;-55
2022/01/02 00:42:42;;;;;;;8.80;2.85;;;;;;;;;;5074704;28;20086;-55
2022/01/02 00:45:12;;;;;;;4.38;2.70;;;;;;;;;;5075391;28;20053;-54
2022/01/02 00:47:38;;;;;;;3.80;2.67;;;;;;;;;;5074639;28;20020;-55
2022/01/02 00:50:07;;;;;;;4.45;2.70;;;;;;;;;;5075542;28;20029;-52
2022/01/02 00:52:38;;;;;;;4.85;2.60;;;;;;;;;;5074243;28;20017;-57
2022/01/02 00:55:08;;;;;;;5.32;2.83;;;;;;;;;;5075145;28;20027;-53
2022/01/02 00:57:35;;;;;;;3.97;2.83;;;;;;;;;;5070651;28;20029;-54
2022/01/02 01:00:17;;;;;;;4.03;2.83;;;;;;;;;;5067312;28;20066;-54
2022/01/02 01:02:48;;;;;;;3.20;2.35;;;;;;;;;;5074381;28;20028;-55
2022/01/02 01:05:21;;;;;;;3.88;2.67;;;;;;;;;;5075295;28;20031;-54
2022/01/02 01:08:17;;;;;;;4.55;2.97;;;;;;;;;;5074139;28;20028;-53
2022/01/02 01:10:44;;;;;;;3.63;2.72;;;;;;;;;;5053053;28;20053;-54
2022/01/02 01:13:10;;;;;;;4.75;2.85;;;;;;;;;;5075034;28;20016;-55
2022/01/02 01:15:38;;;;;;;3.90;2.72;;;;;;;;;;5074284;28;20024;-52
2022/01/02 01:18:04;;;;;;;3.33;2.58;;;;;;;;;;5074924;28;20025;-55
2022/01/02 01:20:33;;;;;;;4.53;2.63;;;;;;;;;;5074406;28;20028;-58
2022/01/02 01:22:59;;;;;;;3.28;2.33;;;;;;;;;;5072187;28;20527;-54
2022/01/02 01:25:25;;;;;;;3.95;2.78;;;;;;;;;;5054471;28;20033;-55
2022/01/02 01:27:52;;;;;;;2.97;2.20;;;;;;;;;;5053797;28;20702;-53
2022/01/02 01:30:19;;;;;;;4.32;3.08;;;;;;;;;;5054691;28;20040;-52
2022/01/02 01:32:46;;;;;;;3.78;2.75;;;;;;;;;;5073458;28;20028;-54
2022/01/02 01:35:12;;;;;;;4.35;2.67;;;;;;;;;;5073265;28;20077;-54
2022/01/02 01:37:38;;;;;;;3.78;2.90;;;;;;;;;;5073676;28;20516;-53
2022/01/02 01:40:05;;;;;;;2.90;2.45;;;;;;;;;;5074283;28;20093;-55
2022/01/02 01:42:36;;;;;;;3.25;2.00;;;;;;;;;;5073807;28;20025;-53
2022/01/02 01:47:49;;;;;;;3.28;2.40;;;;;;;;;;5073493;28;20032;-55
2022/01/02 01:50:16;;;;;;;3.65;2.50;;;;;;;;;;5074604;28;20032;-55
2022/01/02 01:52:42;;;;;;;3.05;2.63;;;;;;;;;;5073542;28;20035;-54
2022/01/02 01:55:09;;;;;;;3.60;2.33;;;;;;;;;;5074105;28;20039;-54
2022/01/02 01:57:35;;;;;;;3.35;2.55;;;;;;;;;;5073289;28;20032;-54
2022/01/02 02:00:09;;;;;;;3.70;2.38;;;;;;;;;;5074489;28;20056;-55
2022/01/02 02:02:36;;;;;;;4.03;2.75;;;;;;;;;;5073825;28;20029;-54
2022/01/02 02:05:02;;;;;;;3.22;2.65;;;;;;;;;;5073369;28;20028;-54
2022/01/02 02:07:37;;;;;;;4.05;2.47;;;;;;;;;;5073650;28;20024;-54
2022/01/02 02:10:13;;;;;;;3.78;2.50;;;;;;;;;;5073754;28;20059;-52
2022/01/02 02:12:43;;;;;;;3.22;2.40;;;;;;;;;;5073536;28;20381;-50
2022/01/02 02:15:10;;;;;;;3.40;2.67;;;;;;;;;;5073853;28;20469;-53
2022/01/02 02:17:37;;;;;;;5.88;2.30;;;;;;;;;;5072660;28;20032;-58
2022/01/02 02:20:15;;;;;;;3.72;2.33;;;;;;;;;;5073570;28;20119;-54
2022/01/02 02:22:42;;;;;;;3.00;2.22;;;;;;;;;;5072727;28;20377;-52
2022/01/02 02:25:10;;;;;;;2.78;2.05;;;;;;;;;;5053597;28;20107;-50
2022/01/02 02:27:36;;;;;;;4.10;2.65;;;;;;;;;;5053028;28;20507;-52
2022/01/02 02:30:03;;;;;;;2.40;1.80;;;;;;;;;;5054144;28;20033;-54
2022/01/02 02:32:29;;;;;;;4.03;2.50;;;;;;;;;;5073016;28;20091;-56
2022/01/02 02:34:55;;;;;;;4.38;2.65;;;;;;;;;;5072658;28;20047;-54
2022/01/02 02:37:21;;;;;;;3.90;2.45;;;;;;;;;;5072922;28;20135;-54
2022/01/02 02:39:47;;;;;;;2.95;2.13;;;;;;;;;;5072199;28;20115;-54
2022/01/02 02:42:40;;;;;;;3.45;2.40;;;;;;;;;;5073018;28;20466;-54
2022/01/02 02:50:44;;;;;;;4.35;2.63;;;;;;;;;;5072181;28;20055;-55
2022/01/02 02:53:10;;;;;;;4.38;2.50;;;;;;;;;;5072621;28;20036;-57
2022/01/02 02:55:43;;;;;;;3.08;2.08;;;;;;;;;;5071433;28;20385;-55
2022/01/02 02:58:37;;;;;;;2.25;1.88;;;;;;;;;;5072894;28;20086;-53
2022/01/02 03:00:55;;;;;;;3.03;2.28;;;;;;;;;;5071446;28;20089;-55
2022/01/02 03:03:21;;;;;;;2.85;2.00;;;;;;;;;;5054674;28;20036;-51
2022/01/02 03:05:47;;;;;;;3.42;2.35;;;;;;;;;;5071568;28;20032;-55
2022/01/02 03:08:13;;;;;;;3.22;2.35;;;;;;;;;;5071358;28;20020;-55
2022/01/02 03:10:39;;;;;;;2.78;2.10;;;;;;;;;;5071649;28;20024;-55
2022/01/02 03:13:05;;;;;;;3.42;2.22;;;;;;;;;;5072887;28;20029;-56
2022/01/02 03:15:31;;;;;;;3.30;2.25;;;;;;;;;;5072972;28;20021;-54
2022/01/02 03:17:57;;;;;;;2.35;2.10;;;;;;;;;;5053878;28;20016;-53
2022/01/02 03:20:23;;;;;;;3.75;2.38;;;;;;;;;;5072638;28;20032;-54
2022/01/02 03:22:49;;;;;;;3.05;2.40;;;;;;;;;;5070418;28;20039;-52
2022/01/02 03:25:16;;;;;;;2.25;1.90;;;;;;;;;;5052453;28;20102;-54
2022/01/02 03:27:42;;;;;;;4.78;2.28;;;;;;;;;;5051088;28;20401;-53
2022/01/02 03:30:10;;;;;;;3.95;2.55;;;;;;;;;;5052194;28;20112;-54
2022/01/02 03:32:36;;;;;;;2.90;2.03;;;;;;;;;;5051342;28;20025;-56
2022/01/02 03:35:03;;;;;;;3.33;2.13;;;;;;;;;;5057474;28;20354;-52
2022/01/02 03:37:32;;;;;;;3.72;2.30;;;;;;;;;;5071922;28;20045;-52
2022/01/02 03:39:58;;;;;;;2.85;2.20;;;;;;;;;;5070701;28;20028;-50
2022/01/02 03:42:24;;;;;;;2.72;2.13;;;;;;;;;;5071544;28;20504;-54
2022/01/02 03:44:50;;;;;;;2.97;2.25;;;;;;;;;;5070966;28;20025;-54
2022/01/02 03:47:16;;;;;;;2.83;2.03;;;;;;;;;;5072093;28;20021;-54
2022/01/02 03:49:42;;;;;;;3.33;2.70;;;;;;;;;;5071208;28;20108;-53
2022/01/02 03:52:09;;;;;;;3.45;2.65;;;;;;;;;;5071873;28;20103;-54
2022/01/02 03:54:35;;;;;;;4.30;2.17;;;;;;;;;;5071594;28;20029;-57
2022/01/02 03:57:01;;;;;;;3.53;2.38;;;;;;;;;;5071916;28;20099;-54
2022/01/02 03:59:27;;;;;;;6.35;3.15;;;;;;;;;;5071032;28;20362;-54
2022/01/02 04:01:53;;;;;;;3.88;2.22;;;;;;;;;;5070956;28;20074;-55
2022/01/02 04:04:19;;;;;;;3.45;2.33;;;;;;;;;;5053822;28;20462;-54
2022/01/02 04:06:45;;;;;;;2.55;2.00;;;;;;;;;;5070238;28;20028;-51
2022/01/02 04:09:11;;;;;;;2.83;2.10;;;;;;;;;;5071445;28;20048;-55
2022/01/02 04:11:37;;;;;;;3.33;2.30;;;;;;;;;;5071537;28;20099;-55
2022/01/02 04:14:03;;;;;;;3.05;2.38;;;;;;;;;;5071725;28;20016;-55
2022/01/02 04:16:29;;;;;;;3.05;2.30;;;;;;;;;;5071942;28;20032;-54
2022/01/02 04:18:55;;;;;;;3.08;2.53;;;;;;;;;;5052885;28;20017;-56
2022/01/02 04:21:21;;;;;;;3.03;2.10;;;;;;;;;;5071507;28;20118;-54
2022/01/02 04:23:47;;;;;;;2.45;2.25;;;;;;;;;;5061436;28;20033;-51
2022/01/02 04:26:13;;;;;;;2.70;1.90;;;;;;;;;;5051937;28;20029;-55
2022/01/02 04:28:39;;;;;;;2.53;2.00;;;;;;;;;;5050990;28;20053;-57
2022/01/02 04:31:05;;;;;;;2.65;2.08;;;;;;;;;;5051702;28;20056;-55
2022/01/02 04:33:31;;;;;;;3.72;2.70;;;;;;;;;;5058593;28;20078;-55
2022/01/02 04:35:57;;;;;;;2.85;2.20;;;;;;;;;;5070646;28;20154;-54
2022/01/02 04:38:23;;;;;;;2.83;2.20;;;;;;;;;;5071793;28;20110;-54
2022/01/02 04:40:49;;;;;;;3.30;2.22;;;;;;;;;;5070854;28;20028;-54
2022/01/02 04:43:15;;;;;;;4.30;2.63;;;;;;;;;;5071530;28;20580;-55
2022/01/02 04:45:41;;;;;;;2.72;2.03;;;;;;;;;;5071042;28;20037;-54
2022/01/02 04:48:07;;;;;;;2.65;2.22;;;;;;;;;;5071457;28;20031;-56
2022/01/02 04:50:33;;;;;;;2.72;2.08;;;;;;;;;;5071739;28;20111;-54
2022/01/02 04:52:59;;;;;;;2.97;2.33;;;;;;;;;;5070988;28;20499;-54
2022/01/02 04:55:26;;;;;;;2.60;1.95;;;;;;;;;;5071360;28;20021;-51
2022/01/02 04:57:52;;;;;;;2.45;2.05;;;;;;;;;;5070535;28;20033;-52
2022/01/02 05:00:18;;;;;;;2.60;1.95;;;;;;;;;;5071324;28;20033;-54
2022/01/02 05:02:44;;;;;;;3.47;2.13;;;;;;;;;;5070529;28;20031;-51
2022/01/02 05:05:10;;;;;;;3.08;2.25;;;;;;;;;;5071142;28;20024;-55
2022/01/02 05:07:36;;;;;;;2.55;1.83;;;;;;;;;;5071613;28;20028;-52
2022/01/02 05:10:02;;;;;;;3.28;2.35;;;;;;;;;;5072514;28;20385;-54
2022/01/02 05:12:29;;;;;;;2.70;2.00;;;;;;;;;;5074827;28;20024;-50
2022/01/02 05:14:57;;;;;;;4.63;2.00;;;;;;;;;;5074061;28;20033;-53
2022/01/02 05:17:24;;;;;;;2.80;2.10;;;;;;;;;;5074828;28;20090;-51
2022/01/02 05:19:50;;;;;;;2.80;2.00;;;;;;;;;;5073637;28;20024;-55
2022/01/02 05:22:16;;;;;;;2.63;1.80;;;;;;;;;;5074900;28;20020;-54
2022/01/02 05:24:42;;;;;;;2.83;2.15;;;;;;;;;;5070248;28;20049;-55
2022/01/02 05:27:09;;;;;;;2.88;2.05;;;;;;;;;;5074682;28;20054;-51
2022/01/02 05:29:35;;;;;;;2.20;1.70;;;;;;;;;;5074381;28;20029;-55
2022/01/02 05:32:01;;;;;;;2.65;1.85;;;;;;;;;;5074065;28;20039;-54
2022/01/02 05:34:27;;;;;;;3.80;2.00;;;;;;;;;;5074540;28;20025;-53
2022/01/02 05:36:53;;;;;;;2.17;1.92;;;;;;;;;;5073060;28;20048;-51
2022/01/02 05:39:19;;;;;;;3.45;2.10;;;;;;;;;;5074532;28;20032;-54
2022/01/02 05:41:46;;;;;;;3.75;2.22;;;;;;;;;;5073607;28;20025;-54
2022/01/02 05:44:12;;;;;;;2.92;2.00;;;;;;;;;;5074481;28;20013;-53
2022/01/02 05:46:38;;;;;;;3.70;2.28;;;;;;;;;;5074365;28;20425;-53
2022/01/02 05:49:04;;;;;;;3.15;2.38;;;;;;;;;;5073771;28;20028;-53
2022/01/02 05:51:30;;;;;;;2.95;2.10;;;;;;;;;;5074240;28;20051;-53
2022/01/02 05:53:56;;;;;;;2.40;1.67;;;;;;;;;;5073611;28;20104;-54
2022/01/02 05:56:22;;;;;;;3.47;2.58;;;;;;;;;;5074331;28;20424;-51
2022/01/02 05:58:48;;;;;;;2.22;1.90;;;;;;;;;;5073395;28;20020;-56
2022/01/02 06:01:14;;;;;;;2.60;1.92;;;;;;;;;;5073685;28;20037;-54
2022/01/02 06:03:40;;;;;;;2.58;2.00;;;;;;;;;;5073574;28;20025;-59
2022/01/02 06:06:06;;;;;;;2.72;2.13;;;;;;;;;;5073565;28;20032;-55
2022/01/02 06:08:32;;;;;;;2.63;2.33;;;;;;;;;;5056310;28;20035;-52
2022/01/02 06:10:58;;;;;;;1.95;1.50;;;;;;;;;;5072928;28;20044;-53
2022/01/02 06:13:24;;;;;;;2.78;2.08;;;;;;;;;;5073609;28;20032;-53
2022/01/02 06:15:50;;;;;;;2.85;2.00;;;;;;;;;;5072760;28;20026;-55
2022/01/02 06:18:16;;;;;;;2.60;2.03;;;;;;;;;;5073871;28;20025;-48
2022/01/02 06:20:42;;;;;;;2.85;1.70;;;;;;;;;;5072294;28;20028;-54
2022/01/02 06:23:08;;;;;;;2.65;1.92;;;;;;;;;;5070164;28;20028;-54
2022/01/02 06:25:34;;;;;;;3.78;2.03;;;;;;;;;;5053375;28;20528;-53
2022/01/02 06:28:00;;;;;;;3.13;2.20;;;;;;;;;;5052588;28;20021;-59
2022/01/02 06:30:26;;;;;;;3.25;2.40;;;;;;;;;;5053667;28;20098;-56
2022/01/02 06:32:55;;;;;;;3.67;2.45;;;;;;;;;;5060015;28;20449;-47
2022/01/02 06:35:23;;;;;;;2.72;2.03;;;;;;;;;;5062068;28;20040;-61
2022/01/02 06:37:49;;;;;;;2.45;1.85;;;;;;;;;;5062258;28;20044;-53
2022/01/02 06:40:15;;;;;;;3.65;2.33;;;;;;;;;;5062471;28;20511;-50
2022/01/02 06:42:41;;;;;;;2.70;2.22;;;;;;;;;;5042938;28;20029;-55
2022/01/02 06:45:07;;;;;;;3.85;1.88;;;;;;;;;;5061053;28;20025;-52
2022/01/02 06:47:33;;;;;;;3.25;2.22;;;;;;;;;;5061491;28;20103;-52
2022/01/02 06:49:59;;;;;;;5.18;2.00;;;;;;;;;;5062440;28;20120;-54
2022/01/02 06:52:25;;;;;;;3.28;2.42;;;;;;;;;;5061168;28;20441;-52
2022/01/02 06:54:53;;;;;;;2.38;1.90;;;;;;;;;;5043341;28;20052;-54
2022/01/02 06:57:20;;;;;;;2.20;1.60;;;;;;;;;;5062049;28;20027;-55
2022/01/02 06:59:46;;;;;;;1.90;1.70;;;;;;;;;;5059831;28;20104;-52
2022/01/02 07:02:12;;;;;;;2.55;1.98;;;;;;;;;;5061405;28;20461;-51
2022/01/02 07:04:38;;;;;;;3.05;1.98;;;;;;;;;;5061958;28;20096;-53
2022/01/02 07:07:04;;;;;;;3.08;1.85;;;;;;;;;;5061599;28;20020;-54
2022/01/02 07:09:31;;;;;;;4.30;2.10;;;;;;;;;;5060994;28;20075;-54
2022/01/02 07:11:58;;;;;;;3.35;2.10;;;;;;;;;;5059977;28;20016;-59
2022/01/02 07:14:26;;;;;;;3.25;2.35;;;;;;;;;;5061947;28;20108;-59
2022/01/02 07:16:52;;;;;;;2.55;2.00;;;;;;;;;;5058853;28;20054;-54
2022/01/02 07:19:18;;;;;;;3.67;2.08;;;;;;;;;;5060093;28;20029;-51
2022/01/02 07:21:44;;;;;;;2.47;1.90;;;;;;;;;;5060540;28;20028;-51
2022/01/02 07:24:10;;;;;;;3.67;2.08;;;;;;;;;;5058221;28;20024;-54
2022/01/02 07:26:36;;;;;;;2.70;2.13;;;;;;;;;;5059859;28;20013;-53
2022/01/02 07:29:02;;;;;;;3.33;2.33;;;;;;;;;;5061103;28;20028;-52
2022/01/02 07:31:29;;;;;;;3.60;1.90;;;;;;;;;;5060114;28;20066;-54
2022/01/02 07:33:55;;;;;;;4.60;2.33;;;;;;;;;;5059690;28;20499;-51
2022/01/02 07:36:21;;;;;;;2.42;1.92;;;;;;;;;;5061654;28;20124;-56
2022/01/02 07:38:47;;;;;;;2.45;1.73;;;;;;;;;;5059214;28;20107;-55
2022/01/02 07:41:14;;;;;;;3.35;2.08;;;;;;;;;;5061207;28;20096;-52
2022/01/02 07:43:40;;;;;;;2.40;1.73;;;;;;;;;;5062408;28;20113;-58
2022/01/02 07:46:06;;;;;;;2.65;1.95;;;;;;;;;;5063701;28;20048;-54
2022/01/02 07:48:32;;;;;;;2.47;1.92;;;;;;;;;;5064370;28;20017;-57
2022/01/02 07:50:58;;;;;;;2.38;1.80;;;;;;;;;;5062628;28;20029;-49
2022/01/02 07:53:24;;;;;;;4.00;2.20;;;;;;;;;;5062850;28;20103;-49
2022/01/02 07:55:50;;;;;;;3.08;2.10;;;;;;;;;;5058744;28;20111;-54
2022/01/02 07:58:16;;;;;;;3.60;1.73;;;;;;;;;;5058931;28;20024;-55
2022/01/02 08:00:42;;;;;;;4.05;2.65;;;;;;;;;;5059266;28;20040;-51
2022/01/02 08:03:09;;;;;;;2.83;1.90;;;;;;;;;;5059292;28;20458;-54
2022/01/02 08:05:35;;;;;;;2.80;1.77;;;;;;;;;;5059955;28;20021;-53
2022/01/02 08:08:01;;;;;;;3.72;2.38;;;;;;;;;;5058347;28;20100;-54
2022/01/02 08:10:27;;;;;;;2.17;1.90;;;;;;;;;;5059847;28;20104;-52
2022/01/02 08:12:54;;;;;;;3.03;2.53;;;;;;;;;;5059782;28;20071;-53
2022/01/02 08:15:20;;;;;;;3.78;2.10;;;;;;;;;;5061582;28;20056;-53
2022/01/02 08:17:46;;;;;;;3.30;2.10;;;;;;;;;;5040350;28;20024;-54
2022/01/02 08:20:13;;;;;;;4.65;2.38;;;;;;;;;;5060518;28;20036;-53
2022/01/02 08:22:39;;;;;;;3.10;2.20;;;;;;;;;;5060954;28;20427;-54
2022/01/02 08:25:05;;;;;;;2.55;1.90;;;;;;;;;;5062403;28;20033;-54
2022/01/02 08:27:33;;;;;;;12.90;2.78;;;;;;;;;;5071304;28;20067;-54
2022/01/02 08:29:59;;;;;;;3.75;1.92;;;;;;;;;;5054359;28;20037;-51
2022/01/02 08:32:25;;;;;;;2.58;2.10;;;;;;;;;;5034662;28;20032;-52
2022/01/02 08:34:51;;;;;;;4.50;2.95;;;;;;;;;;5074901;28;20055;-51
2022/01/02 08:37:18;;;;;;;4.15;3.30;;;;;;;;;;5079710;28;20425;-50
2022/01/02 08:39:44;;;;;;;3.65;2.60;;;;;;;;;;5070913;28;20043;-52
2022/01/02 08:42:11;;;;;;;4.18;3.17;;;;;;;;;;5071170;28;20108;-50
2022/01/02 08:44:38;;;;;;;4.95;2.75;;;;;;;;;;5072977;28;20025;-48
2022/01/02 08:47:04;;;;;;;3.28;2.33;;;;;;;;;;5074617;28;20032;-49
2022/01/02 08:49:30;;;;;;;4.15;2.63;;;;;;;;;;5074805;28;20059;-48
2022/01/02 08:51:56;;;;;;;3.75;2.72;;;;;;;;;;5056898;28;20063;-47
2022/01/02 08:54:22;;;;;;;3.20;2.17;;;;;;;;;;5074190;28;20100;-46
2022/01/02 08:56:48;;;;;;;6.20;2.72;;;;;;;;;;5073939;28;20020;-48
2022/01/02 08:59:14;;;;;;;4.63;2.20;;;;;;;;;;5065669;28;20025;-46
2022/01/02 09:01:40;;;;;;;4.30;2.17;;;;;;;;;;5074696;28;20515;-48
2022/01/02 09:04:06;;;;;;;3.10;2.15;;;;;;;;;;5073573;28;20024;-46
2022/01/02 09:06:32;;;;;;;4.70;2.58;;;;;;;;;;5074682;28;20025;-47
2022/01/02 09:08:58;;;;;;;3.90;2.45;;;;;;;;;;5058859;28;20108;-46
2022/01/02 09:11:24;;;;;;;3.25;2.38;;;;;;;;;;5065703;28;20020;-51
2022/01/02 09:13:50;;;;;;;2.55;2.03;;;;;;;;;;5063355;28;20074;-49
2022/01/02 09:16:16;;;;;;;5.38;2.30;;;;;;;;;;5065680;28;20365;-48
2022/01/02 09:18:42;;;;;;;3.60;2.15;;;;;;;;;;5063341;28;20423;-54
2022/01/02 09:21:08;;;;;;;4.03;1.92;;;;;;;;;;5075002;28;20117;-47
2022/01/02 09:23:34;;;;;;;2.78;2.03;;;;;;;;;;5067454;28;20162;-46
2022/01/02 09:26:00;;;;;;;3.55;2.30;;;;;;;;;;5054407;28;20021;-47
2022/01/02 09:28:26;;;;;;;5.07;2.65;;;;;;;;;;5049403;28;20048;-51
2022/01/02 09:30:52;;;;;;;3.00;1.92;;;;;;;;;;5070700;28;20027;-46
2022/01/02 09:33:18;;;;;;;3.08;1.98;;;;;;;;;;5075864;28;20024;-47
2022/01/02 09:35:45;;;;;;;3.20;2.47;;;;;;;;;;5074162;28;20028;-46
2022/01/02 09:38:11;;;;;;;2.78;2.30;;;;;;;;;;5074449;28;20057;-49
2022/01/02 09:40:38;;;;;;;5.32;2.50;;;;;;;;;;5070400;28;20032;-46
2022/01/02 09:43:04;;;;;;;2.92;2.45;;;;;;;;;;5064990;28;20071;-47
2022/01/02 09:45:38;;;;;;;2.88;1.98;;;;;;;;;;5073106;28;20526;-47
2022/01/02 09:48:07;;;;;;;3.22;2.28;;;;;;;;;;5062611;28;20028;-48
2022/01/02 09:50:35;;;;;;;2.20;1.80;;;;;;;;;;5063686;28;20023;-48
2022/01/02 09:53:01;;;;;;;3.83;1.70;;;;;;;;;;5053676;28;20096;-48
2022/01/02 09:55:27;;;;;;;3.72;2.05;;;;;;;;;;5053075;28;20028;-47
2022/01/02 09:57:58;;;;;;;2.63;1.98;;;;;;;;;;5052932;28;20025;-47
2022/01/02 10:00:24;;;;;;;3.20;2.33;;;;;;;;;;5053893;28;20120;-48
2022/01/02 10:02:57;;;;;;;4.15;2.33;;;;;;;;;;5056235;28;20051;-49
2022/01/02 10:05:24;;;;;;;3.17;2.15;;;;;;;;;;5073717;28;20021;-49
2022/01/02 10:07:51;;;;;;;3.05;2.05;;;;;;;;;;5073570;28;20029;-47
2022/01/02 10:10:17;;;;;;;4.10;2.30;;;;;;;;;;5074118;28;20044;-46
2022/01/02 10:12:43;;;;;;;3.05;2.20;;;;;;;;;;5073069;28;20021;-47
2022/01/02 10:15:12;;;;;;;3.20;2.55;;;;;;;;;;5072053;28;20351;-51
2022/01/02 10:17:51;;;;;;;4.07;2.20;;;;;;;;;;5072289;28;20462;-47
2022/01/02 10:20:17;;;;;;;2.70;2.30;;;;;;;;;;5073391;28;20040;-48
2022/01/02 10:23:01;;;;;;;4.95;2.58;;;;;;;;;;5073238;28;20020;-47
2022/01/02 10:25:46;;;;;;;3.53;2.10;;;;;;;;;;5053958;28;20354;-51
2022/01/02 10:28:18;;;;;;;2.50;2.05;;;;;;;;;;5053914;28;20021;-48
2022/01/02 10:30:44;;;;;;;;;;;;;;;;;;5054455;28;20029;-49
2022/01/02 10:33:10;;;;;;;3.28;2.10;;;;;;;;;;5053899;28;19987;-49
2022/01/02 10:35:37;;;;;;;4.30;1.80;;;;;;;;;;5053710;28;20104;-49
2022/01/02 10:38:04;;;;;;;2.47;1.75;;;;;;;;;;5063275;28;20492;-50
2022/01/02 10:40:30;;;;;;;2.35;1.90;;;;;;;;;;5071186;28;20078;-47
2022/01/02 10:42:57;;;;;;;2.97;2.30;;;;;;;;;;5073069;28;20048;-47
2022/01/02 10:45:50;;;;;;;3.15;2.10;;;;;;;;;;5073474;28;20035;-50
2022/01/02 10:48:21;;;;;;;3.17;2.15;;;;;;;;;;5070045;28;20033;-49
2022/01/02 10:51:02;;;;;;;3.45;1.98;;;;;;;;;;5073064;28;20028;-48
2022/01/02 10:53:28;;;;;;;2.85;2.13;;;;;;;;;;5073453;28;20020;-47
2022/01/02 10:55:54;;;;;;;3.70;2.28;;;;;;;;;;5072724;28;20029;-45
2022/01/02 10:58:21;;;;;;;2.65;1.67;;;;;;;;;;5073407;28;20461;-46
2022/01/02 11:00:47;;;;;;;2.83;1.98;;;;;;;;;;5072461;28;20072;-49
2022/01/02 11:03:13;;;;;;;4.82;2.60;;;;;;;;;;5055335;28;20111;-49
2022/01/02 11:05:39;;;;;;;2.85;1.77;;;;;;;;;;5073280;28;20017;-48
2022/01/02 11:08:06;;;;;;;4.85;2.40;;;;;;;;;;5065075;28;20128;-48
2022/01/02 11:10:36;;;;;;;3.25;2.05;;;;;;;;;;5053095;28;20024;-47
2022/01/02 11:13:05;;;;;;;2.45;1.88;;;;;;;;;;5051827;28;20028;-47
2022/01/02 11:15:32;;;;;;;2.80;2.05;;;;;;;;;;5052817;28;20021;-46
2022/01/02 11:17:59;;;;;;;3.13;2.22;;;;;;;;;;5051737;28;20025;-49
2022/01/02 11:20:29;;;;;;;2.67;2.40;;;;;;;;;;5071839;28;20016;-47
2022/01/02 11:23:07;;;;;;;5.07;2.45;;;;;;;;;;5069999;28;20025;-47
2022/01/02 11:25:39;;;;;;;2.80;2.15;;;;;;;;;;5052724;28;20238;-46
2022/01/02 11:28:06;;;;;;;2.60;1.90;;;;;;;;;;5052375;28;20021;-45
2022/01/02 11:30:35;;;;;;;3.40;2.28;;;;;;;;;;5052570;28;20036;-45
2022/01/02 11:33:02;;;;;;;3.45;2.15;;;;;;;;;;5052110;28;20071;-46
2022/01/02 11:35:31;;;;;;;3.35;2.63;;;;;;;;;;5052628;28;20028;-49
2022/01/02 11:38:01;;;;;;;2.67;2.30;;;;;;;;;;5051280;28;20041;-46
2022/01/02 11:40:43;;;;;;;4.22;2.50;;;;;;;;;;5052433;28;20029;-46
2022/01/02 11:43:09;;;;;;;4.70;2.90;;;;;;;;;;5052073;28;20466;-45
2022/01/02 11:45:35;;;;;;;4.07;2.78;;;;;;;;;;5052445;28;20056;-46
2022/01/02 11:48:21;;;;;;;6.85;3.05;;;;;;;;;;5053602;28;20048;-47
2022/01/02 11:50:48;;;;;;;3.97;2.65;;;;;;;;;;5072178;28;20032;-47
2022/01/02 11:53:17;;;;;;;5.13;2.90;;;;;;;;;;5072333;28;20025;-47
2022/01/02 11:55:44;;;;;;;4.43;2.72;;;;;;;;;;5072324;28;20020;-45
2022/01/02 11:58:10;;;;;;;5.43;2.72;;;;;;;;;;5071821;28;20023;-51
2022/01/02 12:00:38;;;;;;;4.07;2.67;;;;;;;;;;5072651;28;20025;-54
2022/01/02 12:03:04;;;;;;;2.72;2.08;;;;;;;;;;5071966;28;20138;-46
2022/01/02 12:05:30;;;;;;;5.18;2.60;;;;;;;;;;5072190;28;20028;-47
2022/01/02 12:07:58;;;;;;;7.95;3.05;;;;;;;;;;5071170;28;20474;-46
2022/01/02 12:10:31;;;;;;;3.45;2.45;;;;;;;;;;5071877;28;20512;-46
2022/01/02 12:12:57;;;;;;;3.75;2.88;;;;;;;;;;5071688;28;20024;-46
2022/01/02 12:15:35;;;;;;;3.95;2.40;;;;;;;;;;5072260;28;20013;-53
2022/01/02 12:18:11;;;;;;;6.60;2.63;;;;;;;;;;5071262;28;20108;-45
2022/01/02 12:20:52;;;;;;;3.20;2.40;;;;;;;;;;5075222;28;20090;-44
2022/01/02 12:23:36;;;;;;;3.42;2.50;;;;;;;;;;5071063;28;20024;-44
2022/01/02 12:26:16;;;;;;;3.92;2.75;;;;;;;;;;5055376;28;20474;-46
2022/01/02 12:28:42;;;;;;;5.25;2.55;;;;;;;;;;5056275;28;20055;-44
2022/01/02 12:31:10;;;;;;;2.55;2.25;;;;;;;;;;5055229;28;20029;-45
2022/01/02 12:33:36;;;;;;;2.55;2.22;;;;;;;;;;5055859;28;20123;-48
2022/01/02 12:36:08;;;;;;;2.80;1.80;;;;;;;;;;5055318;28;20032;-45
2022/01/02 12:38:53;;;;;;;10.25;2.55;;;;;;;;;;5055377;28;20053;-44
2022/01/02 12:41:20;;;;;;;2.42;2.22;;;;;;;;;;5055929;28;20408;-44
2022/01/02 12:43:52;;;;;;;3.03;2.05;;;;;;;;;;5055900;28;20025;-44
2022/01/02 12:46:40;;;;;;;3.10;2.30;;;;;;;;;;5055873;28;20025;-44
2022/01/02 12:49:07;;;;;;;3.03;2.00;;;;;;;;;;5055095;28;20021;-43
2022/01/02 12:51:34;;;;;;;2.78;1.92;;;;;;;;;;5055630;28;20017;-44
2022/01/02 12:54:00;;;;;;;3.35;2.42;;;;;;;;;;5055007;28;20071;-44
2022/01/02 12:56:37;;;;;;;2.53;1.80;;;;;;;;;;5055422;28;20029;-44
2022/01/02 12:59:16;;;;;;;3.22;2.20;;;;;;;;;;5054974;28;20017;-43
2022/01/02 13:01:48;;;;;;;2.90;2.00;;;;;;;;;;5055574;28;20029;-44
2022/01/02 13:04:15;;;;;;;2.30;1.63;;;;;;;;;;5054796;28;20021;-44
2022/01/02 13:06:44;;;;;;;2.75;1.98;;;;;;;;;;5055281;28;20378;-44
2022/01/02 13:09:10;;;;;;;2.67;1.90;;;;;;;;;;5054666;28;20078;-46
2022/01/02 13:11:37;;;;;;;5.55;1.85;;;;;;;;;;5055418;28;20087;-45
2022/01/02 13:14:03;;;;;;;3.90;2.05;;;;;;;;;;5054668;28;20459;-45
2022/01/02 13:16:29;;;;;;;2.97;2.08;;;;;;;;;;5055307;28;20343;-44
2022/01/02 13:18:55;;;;;;;4.55;1.77;;;;;;;;;;5054512;28;20025;-43
2022/01/02 13:21:21;;;;;;;2.58;1.85;;;;;;;;;;5055078;28;20033;-43
2022/01/02 13:23:47;;;;;;;8.63;1.92;;;;;;;;;;5055180;28;20025;-43
2022/01/02 13:26:20;;;;;;;3.42;1.98;;;;;;;;;;5054378;28;20355;-43
2022/01/02 13:28:47;;;;;;;2.92;1.92;;;;;;;;;;5055054;28;20108;-43
2022/01/02 13:31:23;;;;;;;2.05;1.48;;;;;;;;;;5054310;28;20029;-43
2022/01/02 13:33:49;;;;;;;1.92;1.50;;;;;;;;;;5054961;28;20154;-43
2022/01/02 13:36:18;;;;;;;2.40;1.67;;;;;;;;;;5054067;28;20029;-43
2022/01/02 13:38:50;;;;;;;1.98;1.38;;;;;;;;;;5054871;28;20025;-43
2022/01/02 13:41:16;;;;;;;1.80;1.58;;;;;;;;;;5054018;28;20032;-43
2022/01/02 13:43:42;;;;;;;5.38;1.58;;;;;;;;;;5054724;28;20116;-44
2022/01/02 13:46:08;;;;;;;1.75;1.42;;;;;;;;;;5053774;28;20140;-43
2022/01/02 13:48:35;;;;;;;2.60;1.88;;;;;;;;;;5054147;28;20021;-44
2022/01/02 13:51:01;;;;;;;2.15;1.60;;;;;;;;;;5054076;28;20075;-44
2022/01/02 13:53:31;;;;;;;2.42;1.85;;;;;;;;;;5054603;28;20025;-44
2022/01/02 13:56:03;;;;;;;2.22;1.33;;;;;;;;;;5053771;28;20028;-44
2022/01/02 13:58:30;;;;;;;2.10;1.42;;;;;;;;;;5054602;28;20029;-43
2022/01/02 14:01:00;;;;;;;1.90;1.50;;;;;;;;;;5053590;28;20433;-44
2022/01/02 14:03:26;;;;;;;1.67;1.33;;;;;;;;;;5054350;28;20044;-48
2022/01/02 14:05:52;;;;;;;2.38;1.33;;;;;;;;;;5054132;28;20025;-46
2022/01/02 14:08:19;;;;;;;2.47;1.58;;;;;;;;;;5054173;28;20052;-44
2022/01/02 14:10:45;;;;;;;1.95;1.30;;;;;;;;;;5054122;28;20071;-44
2022/01/02 14:13:16;;;;;;;1.95;1.45;;;;;;;;;;5053534;28;20056;-44
2022/01/02 14:15:45;;;;;;;1.73;1.20;;;;;;;;;;5054306;28;20028;-42
2022/01/02 14:18:11;;;;;;;3.58;1.30;;;;;;;;;;5053303;28;20028;-44
2022/01/02 14:20:37;;;;;;;2.42;1.30;;;;;;;;;;5054098;28;20021;-44
2022/01/02 14:23:05;;;;;;;13.63;1.65;;;;;;;;;;5053118;28;20474;-44
2022/01/02 14:25:31;;;;;;;2.53;1.38;;;;;;;;;;5053839;28;20029;-45
2022/01/02 14:27:57;;;;;;;1.65;1.42;;;;;;;;;;5053396;28;20092;-45
2022/01/02 14:30:24;;;;;;;1.95;1.30;;;;;;;;;;5018941;28;20037;-44
2022/01/02 14:32:52;;;;;;;3.83;1.45;;;;;;;;;;5053732;28;20032;-45
2022/01/02 14:35:19;;;;;;;2.97;1.63;;;;;;;;;;5053278;28;20036;-44
2022/01/02 14:37:47;;;;;;;3.03;1.70;;;;;;;;;;5053649;28;20044;-44
2022/01/02 14:40:13;;;;;;;2.55;1.40;;;;;;;;;;5053186;28;20048;-44
2022/01/02 14:42:40;;;;;;;2.35;1.83;;;;;;;;;;5052973;28;20067;-44
2022/01/02 14:45:06;;;;;;;2.47;1.58;;;;;;;;;;5053102;28;20029;-44
2022/01/02 14:47:33;;;;;;;1.60;1.15;;;;;;;;;;5053569;28;20373;-45
2022/01/02 14:50:03;;;;;;;4.50;1.20;;;;;;;;;;5052839;28;20061;-43
2022/01/02 14:52:30;;;;;;;4.65;1.58;;;;;;;;;;5053482;28;20425;-44
2022/01/02 14:54:56;;;;;;;3.08;1.88;;;;;;;;;;5035001;28;20033;-45